Time;durP1;ratioP1;P1;durP2;ratioP2;P2;SDS_P1;SDS_P2;PMS_P1;PMS_P2;Temp;Humidity;BMP_temperature;BMP_pressure;BME280_temperature;BME280_humidity;BME280_pressure;Samples;Min_cycle;Max_cycle;Signal;HPM_P1;HPM_P2
2022/05/13 00:01:32;;;;;;;;;;;24.10;55.00;;;;;;5004497;28;20411;-69
2022/05/13 00:03:57;;;;;;;;;;;24.10;55.00;;;;;;5006340;28;19925;-69
2022/05/13 00:06:23;;;;;;;;;;;24.10;55.00;;;;;;5006620;28;19918;-69
2022/05/13 00:08:48;;;;;;;;;;;24.10;55.00;;;;;;5003884;28;19921;-69
2022/05/13 00:11:13;;;;;;;;;;;24.00;54.90;;;;;;5004977;28;19963;-69
2022/05/13 00:13:39;;;;;;;;;;;24.10;55.00;;;;;;5005865;28;20403;-69
2022/05/13 00:16:05;;;;;;;;;;;24.00;54.90;;;;;;5005569;28;19913;-69
2022/05/13 00:18:30;;;;;;;;;;;24.10;54.90;;;;;;5002654;28;19917;-69
2022/05/13 00:20:56;;;;;;;;;;;24.10;54.90;;;;;;5013061;28;20396;-69
2022/05/13 00:23:21;;;;;;;;;;;24.00;54.90;;;;;;5005617;28;19918;-69
2022/05/13 00:25:47;;;;;;;;;;;24.00;54.90;;;;;;5005215;28;19914;-69
2022/05/13 00:28:13;;;;;;;;;;;24.00;54.90;;;;;;5005337;28;19920;-69
2022/05/13 00:30:40;;;;;;;;;;;24.00;54.90;;;;;;5004494;28;19917;-69
2022/05/13 00:33:05;;;;;;;;;;;24.00;54.90;;;;;;5005169;28;19913;-69
2022/05/13 00:35:31;;;;;;;;;;;24.00;54.80;;;;;;5005694;28;19932;-69
2022/05/13 00:37:56;;;;;;;;;;;24.00;54.80;;;;;;5005743;28;19914;-69
2022/05/13 00:40:22;;;;;;;;;;;24.00;54.80;;;;;;5004771;28;20511;-68
2022/05/13 00:42:48;;;;;;;;;;;24.00;54.80;;;;;;5013738;28;19968;-68
2022/05/13 00:45:14;;;;;;;;;;;24.00;54.80;;;;;;5007407;28;19996;-69
2022/05/13 00:47:39;;;;;;;;;;;24.00;54.80;;;;;;5010053;28;20009;-68
2022/05/13 00:50:05;;;;;;;;;;;24.00;54.80;;;;;;5008843;28;20004;-68
2022/05/13 00:52:31;;;;;;;;;;;24.00;54.80;;;;;;5009014;28;19917;-68
2022/05/13 00:54:56;;;;;;;;;;;24.00;54.90;;;;;;5024686;28;19913;-69
2022/05/13 00:57:22;;;;;;;;;;;24.00;54.80;;;;;;5022178;28;19920;-68
2022/05/13 00:59:48;;;;;;;;;;;24.00;54.80;;;;;;5006736;28;19918;-68
2022/05/13 01:02:13;;;;;;;;;;;24.00;54.80;;;;;;5008443;28;19917;-68
2022/05/13 01:04:38;;;;;;;;;;;24.00;54.80;;;;;;5008518;28;19917;-69
2022/05/13 01:07:05;;;;;;;;;;;24.00;54.80;;;;;;5023446;28;19923;-69
2022/05/13 01:09:36;;;;;;;;;;;24.00;54.80;;;;;;5007736;28;20339;-69
2022/05/13 01:12:03;;;;;;;;;;;24.00;54.80;;;;;;4990557;28;19917;-69
2022/05/13 01:14:33;;;;;;;;;;;24.00;54.80;;;;;;5008907;28;19937;-69
2022/05/13 01:20:03;;;;;;;;;;;24.00;54.80;;;;;;4986712;28;19925;-69
2022/05/13 01:22:28;;;;;;;;;;;23.90;54.80;;;;;;4989255;28;20427;-69
2022/05/13 01:24:54;;;;;;;;;;;24.00;54.80;;;;;;5008536;28;19913;-69
2022/05/13 01:27:19;;;;;;;;;;;24.00;54.80;;;;;;5007886;28;20008;-68
2022/05/13 01:29:45;;;;;;;;;;;23.90;54.80;;;;;;5007907;28;19913;-68
2022/05/13 01:32:10;;;;;;;;;;;23.90;55.40;;;;;;5008079;28;19917;-69
2022/05/13 01:34:36;;;;;;;;;;;23.90;54.80;;;;;;5007998;28;20458;-68
2022/05/13 01:37:01;;;;;;;;;;;23.90;54.70;;;;;;5008416;28;19920;-69
2022/05/13 01:39:27;;;;;;;;;;;23.90;54.70;;;;;;5008334;28;19914;-69
2022/05/13 01:41:53;;;;;;;;;;;23.90;54.70;;;;;;5007834;28;19918;-69
2022/05/13 01:44:19;;;;;;;;;;;23.90;54.70;;;;;;5008211;28;19920;-69
2022/05/13 01:46:44;;;;;;;;;;;23.90;54.70;;;;;;5008569;28;19917;-69
2022/05/13 01:49:10;;;;;;;;;;;23.90;54.70;;;;;;5008025;28;19954;-69
2022/05/13 01:51:35;;;;;;;;;;;23.90;54.70;;;;;;5010692;28;20072;-68
2022/05/13 01:54:01;;;;;;;;;;;23.90;54.70;;;;;;5008319;28;20360;-68
2022/05/13 01:56:26;;;;;;;;;;;23.90;54.70;;;;;;5008732;28;19917;-69
2022/05/13 01:58:51;;;;;;;;;;;23.90;54.60;;;;;;5009275;28;19913;-69
2022/05/13 02:01:17;;;;;;;;;;;23.90;54.60;;;;;;5009919;28;20427;-69
2022/05/13 02:03:45;;;;;;;;;;;23.90;54.60;;;;;;5009646;28;20025;-69
2022/05/13 02:06:15;;;;;;;;;;;23.90;54.60;;;;;;5009307;28;19918;-69
2022/05/13 02:08:40;;;;;;;;;;;23.90;54.60;;;;;;4991126;28;19924;-69
2022/05/13 02:11:06;;;;;;;;;;;23.90;54.60;;;;;;5007939;28;19917;-69
2022/05/13 02:13:31;;;;;;;;;;;23.90;54.60;;;;;;5008304;28;19914;-69
2022/05/13 02:15:57;;;;;;;;;;;23.90;54.60;;;;;;5024514;28;19964;-69
2022/05/13 02:18:22;;;;;;;;;;;23.80;54.60;;;;;;5007892;28;20451;-66
2022/05/13 02:20:48;;;;;;;;;;;23.80;54.60;;;;;;5008106;28;19914;-69
2022/05/13 02:23:13;;;;;;;;;;;23.80;54.50;;;;;;5008867;28;19921;-69
2022/05/13 02:25:39;;;;;;;;;;;23.80;54.50;;;;;;5004319;28;20025;-69
2022/05/13 02:28:04;;;;;;;;;;;23.80;54.50;;;;;;5005227;28;19924;-69
2022/05/13 02:30:29;;;;;;;;;;;23.80;54.50;;;;;;5007405;28;20459;-68
2022/05/13 02:32:55;;;;;;;;;;;23.80;54.50;;;;;;5003974;28;19921;-69
2022/05/13 02:35:20;;;;;;;;;;;23.80;54.50;;;;;;5007626;28;19928;-68
2022/05/13 02:37:46;;;;;;;;;;;23.80;54.40;;;;;;5007555;28;19918;-69
2022/05/13 02:40:12;;;;;;;;;;;23.80;54.50;;;;;;5005638;28;20483;-69
2022/05/13 02:42:37;;;;;;;;;;;23.80;54.40;;;;;;5006870;28;19965;-69
2022/05/13 02:45:03;;;;;;;;;;;23.80;54.40;;;;;;5005603;28;19917;-68
2022/05/13 02:47:29;;;;;;;;;;;23.80;54.40;;;;;;5022820;28;19960;-68
2022/05/13 02:52:38;;;;;;;;;;;23.70;54.40;;;;;;5007577;28;20439;-68
2022/05/13 02:55:04;;;;;;;;;;;23.70;54.40;;;;;;5006707;28;19921;-67
2022/05/13 02:57:30;;;;;;;;;;;23.70;54.50;;;;;;5007112;28;20488;-69
2022/05/13 02:59:55;;;;;;;;;;;23.70;54.40;;;;;;5005352;28;19921;-69
2022/05/13 03:02:21;;;;;;;;;;;23.70;54.40;;;;;;4997576;28;20066;-68
2022/05/13 03:04:47;;;;;;;;;;;23.70;54.40;;;;;;5006524;28;19929;-69
2022/05/13 03:07:12;;;;;;;;;;;23.70;54.40;;;;;;5006158;28;19913;-68
2022/05/13 03:09:37;;;;;;;;;;;23.70;54.40;;;;;;5005406;28;20403;-69
2022/05/13 03:12:03;;;;;;;;;;;23.70;54.40;;;;;;5005086;28;19917;-69
2022/05/13 03:14:29;;;;;;;;;;;23.70;54.40;;;;;;5006535;28;19969;-69
2022/05/13 03:16:54;;;;;;;;;;;23.70;54.40;;;;;;5004813;28;20469;-67
2022/05/13 03:19:19;;;;;;;;;;;23.70;54.30;;;;;;5005169;28;20015;-68
2022/05/13 03:21:45;;;;;;;;;;;23.70;54.40;;;;;;5005750;28;19918;-69
2022/05/13 03:24:10;;;;;;;;;;;23.70;54.40;;;;;;5006126;28;19913;-69
2022/05/13 03:26:36;;;;;;;;;;;23.70;54.40;;;;;;5006058;28;19967;-69
2022/05/13 03:29:02;;;;;;;;;;;23.70;54.40;;;;;;5005427;28;20269;-69
2022/05/13 03:31:27;;;;;;;;;;;23.70;54.30;;;;;;5003496;28;19925;-68
2022/05/13 03:33:53;;;;;;;;;;;23.70;54.30;;;;;;5005762;28;20292;-69
2022/05/13 03:36:19;;;;;;;;;;;23.70;54.30;;;;;;5006074;28;19925;-69
2022/05/13 03:38:44;;;;;;;;;;;23.60;54.20;;;;;;5004858;28;19921;-69
2022/05/13 03:41:10;;;;;;;;;;;23.70;54.30;;;;;;5005871;28;19971;-69
2022/05/13 03:43:35;;;;;;;;;;;23.70;54.20;;;;;;5005600;28;19921;-69
2022/05/13 03:46:01;;;;;;;;;;;23.70;54.20;;;;;;5006106;28;19918;-69
2022/05/13 03:48:26;;;;;;;;;;;23.60;54.20;;;;;;5004909;28;19914;-70
2022/05/13 03:50:52;;;;;;;;;;;23.70;54.30;;;;;;5006014;28;19995;-69
2022/05/13 03:53:17;;;;;;;;;;;23.70;54.30;;;;;;5005793;28;19960;-68
2022/05/13 03:55:43;;;;;;;;;;;23.60;54.10;;;;;;5006829;28;19917;-69
2022/05/13 03:58:09;;;;;;;;;;;23.60;54.20;;;;;;5007101;28;19971;-69
2022/05/13 04:00:35;;;;;;;;;;;23.60;54.20;;;;;;5006134;28;19929;-69
2022/05/13 04:03:01;;;;;;;;;;;23.60;54.20;;;;;;5007050;28;19918;-69
2022/05/13 04:10:54;;;;;;;;;;;23.60;54.10;;;;;;5005428;28;19976;-68
2022/05/13 04:16:04;;;;;;;;;;;23.60;54.10;;;;;;5000485;28;19956;-69
2022/05/13 04:18:30;;;;;;;;;;;23.60;54.10;;;;;;5005480;28;20414;-69
2022/05/13 04:20:55;;;;;;;;;;;23.60;54.10;;;;;;5004868;28;19918;-69
2022/05/13 04:23:20;;;;;;;;;;;23.60;54.10;;;;;;5001289;28;20662;-68
2022/05/13 04:25:46;;;;;;;;;;;23.60;54.10;;;;;;5015256;28;19968;-69
2022/05/13 04:28:11;;;;;;;;;;;23.60;54.10;;;;;;5003515;28;19996;-66
2022/05/13 04:30:37;;;;;;;;;;;23.60;54.00;;;;;;5004608;28;20454;-69
2022/05/13 04:33:02;;;;;;;;;;;23.60;54.00;;;;;;5006924;28;19924;-70
2022/05/13 04:35:28;;;;;;;;;;;23.60;54.20;;;;;;5006244;28;20655;-71
2022/05/13 04:37:53;;;;;;;;;;;23.60;54.20;;;;;;5004919;28;20404;-71
2022/05/13 04:40:19;;;;;;;;;;;23.60;54.00;;;;;;5005523;28;19913;-68
2022/05/13 04:42:50;;;;;;;;;;;23.60;54.00;;;;;;5006093;28;20007;-70
2022/05/13 04:45:25;;;;;;;;;;;23.70;54.50;;;;;;5005545;28;19933;-72
2022/05/13 04:50:42;;;;;;;;;;;23.70;54.90;;;;;;5004344;28;19932;-73
2022/05/13 04:53:08;;;;;;;;;;;23.70;54.70;;;;;;4985673;28;20013;-69
2022/05/13 04:55:33;;;;;;;;;;;23.70;55.00;;;;;;4986222;28;20008;-70
2022/05/13 04:57:59;;;;;;;;;;;23.70;55.40;;;;;;5003771;28;19960;-68
2022/05/13 05:00:24;;;;;;;;;;;23.70;55.50;;;;;;5004535;28;20351;-69
2022/05/13 05:02:50;;;;;;;;;;;23.70;55.70;;;;;;5004312;28;20012;-71
2022/05/13 05:05:16;;;;;;;;;;;23.70;55.70;;;;;;5005019;28;19925;-71
2022/05/13 05:07:41;;;;;;;;;;;23.70;55.80;;;;;;5005261;28;20297;-70
2022/05/13 05:10:07;;;;;;;;;;;23.70;55.90;;;;;;5004176;28;20137;-71
2022/05/13 05:12:32;;;;;;;;;;;23.70;56.00;;;;;;5004989;28;20440;-70
2022/05/13 05:14:58;;;;;;;;;;;23.70;55.90;;;;;;5004948;28;20308;-70
2022/05/13 05:17:23;;;;;;;;;;;23.80;56.00;;;;;;5005434;28;20097;-70
2022/05/13 05:19:49;;;;;;;;;;;23.70;56.00;;;;;;5004049;28;19925;-70
2022/05/13 05:22:14;;;;;;;;;;;23.80;55.90;;;;;;5003165;28;19928;-69
2022/05/13 05:24:39;;;;;;;;;;;23.80;56.00;;;;;;4994017;28;19992;-69
2022/05/13 05:27:09;;;;;;;;;;;23.80;56.10;;;;;;5001358;28;19918;-71
2022/05/13 05:29:35;;;;;;;;;;;23.80;55.90;;;;;;4996472;28;19913;-70
2022/05/13 05:32:00;;;;;;;;;;;23.80;55.90;;;;;;5013934;28;19979;-71
2022/05/13 05:34:26;;;;;;;;;;;23.80;55.70;;;;;;4994020;28;20393;-69
2022/05/13 05:36:51;;;;;;;;;;;23.80;55.70;;;;;;5006389;28;20023;-71
2022/05/13 05:39:17;;;;;;;;;;;23.80;55.70;;;;;;4999336;28;19983;-69
2022/05/13 05:41:42;;;;;;;;;;;23.80;55.80;;;;;;5018743;28;19968;-70
2022/05/13 05:44:08;;;;;;;;;;;23.80;55.70;;;;;;4997616;28;19924;-70
2022/05/13 05:46:33;;;;;;;;;;;23.80;55.80;;;;;;5019285;28;19913;-66
2022/05/13 05:48:59;;;;;;;;;;;23.80;55.80;;;;;;5006703;28;19928;-70
2022/05/13 05:51:24;;;;;;;;;;;23.80;55.70;;;;;;5007968;28;19959;-71
2022/05/13 05:59:17;;;;;;;;;;;23.70;55.80;;;;;;4988413;28;20004;-72
2022/05/13 06:01:43;;;;;;;;;;;23.70;55.90;;;;;;4988120;28;19921;-68
2022/05/13 06:04:08;;;;;;;;;;;23.70;55.80;;;;;;5004612;28;19917;-73
2022/05/13 06:06:34;;;;;;;;;;;23.70;55.80;;;;;;5007681;28;19925;-72
2022/05/13 06:08:59;;;;;;;;;;;23.70;55.80;;;;;;5006484;28;19917;-72
2022/05/13 06:11:25;;;;;;;;;;;23.70;55.80;;;;;;5007576;28;19955;-69
2022/05/13 06:13:52;;;;;;;;;;;23.70;55.70;;;;;;5007666;28;19941;-67
2022/05/13 06:16:17;;;;;;;;;;;23.70;55.70;;;;;;5007718;28;19937;-70
2022/05/13 06:18:43;;;;;;;;;;;23.70;55.80;;;;;;5005948;28;20335;-70
2022/05/13 06:21:08;;;;;;;;;;;23.70;55.70;;;;;;5007460;28;19940;-66
2022/05/13 06:23:35;;;;;;;;;;;23.70;55.70;;;;;;5006964;28;20019;-71
2022/05/13 06:26:01;;;;;;;;;;;23.70;55.70;;;;;;5007696;28;19952;-71
2022/05/13 06:28:27;;;;;;;;;;;23.70;55.60;;;;;;5006994;28;19965;-69
2022/05/13 06:30:52;;;;;;;;;;;23.70;55.60;;;;;;5007974;28;20117;-67
2022/05/13 06:33:18;;;;;;;;;;;23.60;55.50;;;;;;5005183;28;19920;-72
2022/05/13 06:35:43;;;;;;;;;;;23.60;55.30;;;;;;5007031;28;19925;-69
2022/05/13 06:38:13;;;;;;;;;;;23.60;55.30;;;;;;5007515;28;20304;-71
2022/05/13 06:40:39;;;;;;;;;;;23.60;55.20;;;;;;5006690;28;19918;-74
2022/05/13 06:43:04;;;;;;;;;;;23.60;55.00;;;;;;5007153;28;20277;-65
2022/05/13 06:45:29;;;;;;;;;;;23.60;55.00;;;;;;5006410;28;19933;-70
2022/05/13 06:47:55;;;;;;;;;;;23.60;55.00;;;;;;5005688;28;19961;-70
2022/05/13 06:50:20;;;;;;;;;;;23.60;55.00;;;;;;5005513;28;19925;-70
2022/05/13 06:52:46;;;;;;;;;;;23.60;55.00;;;;;;5006367;28;19956;-65
2022/05/13 06:55:12;;;;;;;;;;;23.60;54.90;;;;;;5006149;28;19963;-70
2022/05/13 06:57:37;;;;;;;;;;;23.60;54.80;;;;;;5005466;28;19913;-71
2022/05/13 07:00:06;;;;;;;;;;;23.60;54.80;;;;;;4998094;28;19957;-70
2022/05/13 07:02:31;;;;;;;;;;;23.60;54.80;;;;;;5004156;28;19921;-70
2022/05/13 07:04:57;;;;;;;;;;;23.60;54.80;;;;;;5006217;28;19939;-62
2022/05/13 07:07:22;;;;;;;;;;;23.60;54.80;;;;;;5006602;28;19945;-70
2022/05/13 07:09:48;;;;;;;;;;;23.50;54.80;;;;;;5005388;28;19917;-69
2022/05/13 07:12:13;;;;;;;;;;;23.50;54.70;;;;;;5006427;28;20403;-70
2022/05/13 07:14:38;;;;;;;;;;;23.60;54.80;;;;;;5006409;28;20048;-73
2022/05/13 07:17:04;;;;;;;;;;;23.50;54.80;;;;;;5005765;28;19917;-70
2022/05/13 07:19:29;;;;;;;;;;;23.50;54.60;;;;;;5005457;28;20368;-70
2022/05/13 07:21:55;;;;;;;;;;;23.50;54.70;;;;;;5021508;28;19996;-70
2022/05/13 07:24:20;;;;;;;;;;;23.50;54.60;;;;;;5005840;28;20311;-71
2022/05/13 07:26:46;;;;;;;;;;;23.50;54.80;;;;;;5004919;28;19925;-70
2022/05/13 07:29:11;;;;;;;;;;;23.50;54.40;;;;;;5005946;28;20324;-66
2022/05/13 07:31:38;;;;;;;;;;;23.50;54.20;;;;;;5005094;28;19918;-70
2022/05/13 07:34:03;;;;;;;;;;;23.50;54.20;;;;;;5006567;28;19913;-71
2022/05/13 07:36:29;;;;;;;;;;;23.50;54.30;;;;;;5005981;28;20034;-70
2022/05/13 07:41:38;;;;;;;;;;;23.50;54.40;;;;;;4994760;28;20430;-70
2022/05/13 07:44:04;;;;;;;;;;;23.50;54.50;;;;;;5005370;28;19921;-66
2022/05/13 07:46:29;;;;;;;;;;;23.50;54.50;;;;;;5005166;28;20343;-66
2022/05/13 07:48:55;;;;;;;;;;;23.50;54.50;;;;;;5004474;28;19948;-70
2022/05/13 07:51:23;;;;;;;;;;;23.50;54.50;;;;;;5005441;28;20269;-71
2022/05/13 07:53:48;;;;;;;;;;;23.50;54.30;;;;;;5004704;28;19917;-67
2022/05/13 07:56:14;;;;;;;;;;;23.50;54.40;;;;;;5005448;28;19921;-66
2022/05/13 07:58:39;;;;;;;;;;;23.50;54.50;;;;;;5003635;28;19917;-68
2022/05/13 08:01:05;;;;;;;;;;;23.50;54.60;;;;;;5004820;28;19969;-68
2022/05/13 08:03:33;;;;;;;;;;;23.50;54.50;;;;;;5006310;28;19914;-70
2022/05/13 08:06:02;;;;;;;;;;;23.50;54.40;;;;;;5006028;28;19947;-70
2022/05/13 08:08:40;;;;;;;;;;;23.50;54.50;;;;;;5005436;28;19965;-66
2022/05/13 08:11:06;;;;;;;;;;;23.50;54.50;;;;;;5006280;28;19940;-68
2022/05/13 08:13:33;;;;;;;;;;;23.50;54.50;;;;;;5004866;28;19914;-70
2022/05/13 08:15:59;;;;;;;;;;;23.50;54.60;;;;;;5004984;28;19914;-70
2022/05/13 08:18:25;;;;;;;;;;;23.50;54.70;;;;;;5019497;28;20586;-67
2022/05/13 08:20:50;;;;;;;;;;;23.50;54.70;;;;;;5004641;28;19913;-65
2022/05/13 08:23:16;;;;;;;;;;;23.50;54.70;;;;;;5004952;28;19944;-70
2022/05/13 08:25:44;;;;;;;;;;;23.50;54.70;;;;;;5003662;28;20288;-70
2022/05/13 08:28:10;;;;;;;;;;;23.50;54.80;;;;;;5004996;28;20385;-70
2022/05/13 08:30:35;;;;;;;;;;;23.40;54.80;;;;;;5012398;28;19968;-69
2022/05/13 08:33:02;;;;;;;;;;;23.50;54.90;;;;;;5004102;28;19925;-69
2022/05/13 08:35:28;;;;;;;;;;;23.50;55.00;;;;;;5004902;28;19918;-69
2022/05/13 08:37:53;;;;;;;;;;;23.50;55.00;;;;;;5005074;28;19914;-67
2022/05/13 08:40:27;;;;;;;;;;;23.50;55.10;;;;;;5002820;28;19924;-64
2022/05/13 08:42:53;;;;;;;;;;;23.50;55.10;;;;;;5003434;28;19920;-68
2022/05/13 08:45:18;;;;;;;;;;;23.50;55.10;;;;;;5005276;28;19913;-69
2022/05/13 08:47:51;;;;;;;;;;;23.50;55.10;;;;;;5020584;28;20288;-71
2022/05/13 08:50:28;;;;;;;;;;;23.50;55.10;;;;;;5019703;28;19918;-68
2022/05/13 08:53:12;;;;;;;;;;;23.50;55.10;;;;;;5021183;28;20000;-69
2022/05/13 08:55:40;;;;;;;;;;;23.50;55.30;;;;;;5005411;28;19925;-65
2022/05/13 08:58:06;;;;;;;;;;;23.50;55.30;;;;;;5003933;28;20166;-70
2022/05/13 09:00:33;;;;;;;;;;;23.50;55.30;;;;;;5001322;28;22016;-66
2022/05/13 09:03:13;;;;;;;;;;;23.50;55.20;;;;;;5012051;23;19976;-65
2022/05/13 09:05:44;;;;;;;;;;;23.50;55.20;;;;;;5017355;28;19918;-65
2022/05/13 09:08:09;;;;;;;;;;;23.50;55.10;;;;;;4986770;28;20702;-65
2022/05/13 09:10:39;;;;;;;;;;;23.50;55.10;;;;;;4987899;28;19925;-65
2022/05/13 09:13:10;;;;;;;;;;;23.50;55.20;;;;;;4986627;28;19925;-65
2022/05/13 09:15:41;;;;;;;;;;;23.50;55.30;;;;;;4983365;28;19914;-65
2022/05/13 09:18:08;;;;;;;;;;;23.50;55.20;;;;;;4967755;28;20348;-65
2022/05/13 09:21:02;;;;;;;;;;;23.50;55.20;;;;;;4970017;28;19918;-65
2022/05/13 09:23:28;;;;;;;;;;;23.50;55.20;;;;;;4987070;28;19914;-65
2022/05/13 09:25:56;;;;;;;;;;;23.50;55.30;;;;;;4981583;28;19928;-65
2022/05/13 09:28:22;;;;;;;;;;;23.50;55.00;;;;;;4968462;28;19918;-65
2022/05/13 09:30:49;;;;;;;;;;;23.50;55.30;;;;;;4970813;28;19920;-66
2022/05/13 09:33:26;;;;;;;;;;;23.50;55.10;;;;;;4988101;28;20012;-66
2022/05/13 09:35:55;;;;;;;;;;;23.50;55.30;;;;;;4984664;28;19915;-66
2022/05/13 09:38:24;;;;;;;;;;;23.50;55.30;;;;;;4967197;28;19922;-65
2022/05/13 09:41:02;;;;;;;;;;;23.50;55.40;;;;;;4968496;28;19914;-66
2022/05/13 09:43:51;;;;;;;;;;;23.50;55.30;;;;;;4987335;28;19972;-66
2022/05/13 09:46:22;;;;;;;;;;;23.40;55.50;;;;;;4981693;28;19914;-66
2022/05/13 09:49:09;;;;;;;;;;;23.40;55.30;;;;;;4966226;28;19949;-66
2022/05/13 09:51:36;;;;;;;;;;;23.50;55.00;;;;;;4974207;28;19928;-66
2022/05/13 09:54:05;;;;;;;;;;;23.50;54.90;;;;;;4986300;28;19914;-66
2022/05/13 09:56:49;;;;;;;;;;;23.40;55.10;;;;;;4981099;28;19918;-66
2022/05/13 09:59:21;;;;;;;;;;;23.50;55.00;;;;;;4965559;28;20513;-66
2022/05/13 10:01:47;;;;;;;;;;;23.50;55.00;;;;;;4979733;28;19924;-66
2022/05/13 10:04:23;;;;;;;;;;;23.50;55.10;;;;;;4990935;28;19929;-66
2022/05/13 10:06:48;;;;;;;;;;;23.50;55.10;;;;;;4982484;28;19914;-66
2022/05/13 10:14:56;;;;;;;;;;;23.40;54.20;;;;;;4991883;28;20453;-65
2022/05/13 10:17:22;;;;;;;;;;;23.40;54.20;;;;;;4966233;28;19915;-66
2022/05/13 10:19:49;;;;;;;;;;;23.50;54.40;;;;;;4949718;28;19914;-65
2022/05/13 10:22:17;;;;;;;;;;;23.50;54.20;;;;;;4967857;28;19922;-66
2022/05/13 10:24:51;;;;;;;;;;;23.50;54.60;;;;;;5006320;28;20041;-66
2022/05/13 10:27:21;;;;;;;;;;;23.50;54.30;;;;;;4980310;28;20794;-65
2022/05/13 10:29:46;;;;;;;;;;;23.50;54.70;;;;;;4969033;28;19914;-66
2022/05/13 10:32:20;;;;;;;;;;;23.50;54.40;;;;;;4994088;28;19928;-66
2022/05/13 10:34:50;;;;;;;;;;;23.50;54.70;;;;;;4988554;28;19951;-66
2022/05/13 10:37:29;;;;;;;;;;;23.50;54.60;;;;;;4982241;28;20427;-66
2022/05/13 10:39:58;;;;;;;;;;;23.50;54.60;;;;;;4952164;28;20033;-66
2022/05/13 10:42:25;;;;;;;;;;;23.50;54.80;;;;;;4975940;28;20657;-66
2022/05/13 10:44:52;;;;;;;;;;;23.50;55.10;;;;;;4974140;28;19918;-66
2022/05/13 10:47:20;;;;;;;;;;;23.50;55.00;;;;;;4980113;28;19941;-66
2022/05/13 10:49:46;;;;;;;;;;;23.50;54.80;;;;;;4968342;28;19918;-66
2022/05/13 10:52:21;;;;;;;;;;;23.50;55.10;;;;;;4973610;28;19936;-65
2022/05/13 10:54:46;;;;;;;;;;;23.50;55.10;;;;;;4987324;28;21979;-65
2022/05/13 10:57:12;;;;;;;;;;;23.50;55.00;;;;;;5002782;28;19914;-65
2022/05/13 10:59:57;;;;;;;;;;;23.50;55.00;;;;;;4985805;28;19914;-65
2022/05/13 11:02:35;;;;;;;;;;;23.50;55.20;;;;;;4972878;28;19925;-66
2022/05/13 11:05:13;;;;;;;;;;;23.50;55.10;;;;;;5005031;28;19913;-66
2022/05/13 11:07:51;;;;;;;;;;;23.50;55.00;;;;;;5000071;28;20372;-66
2022/05/13 11:10:19;;;;;;;;;;;23.50;55.00;;;;;;4980835;28;21619;-65
2022/05/13 11:12:55;;;;;;;;;;;23.50;55.00;;;;;;4992047;28;20436;-66
2022/05/13 11:15:29;;;;;;;;;;;23.50;55.00;;;;;;5005130;28;19992;-66
2022/05/13 11:17:57;;;;;;;;;;;23.50;55.20;;;;;;4999646;28;19965;-65
2022/05/13 11:20:26;;;;;;;;;;;23.50;55.00;;;;;;4984406;28;20220;-65
2022/05/13 11:22:51;;;;;;;;;;;23.50;55.90;;;;;;4989731;28;19973;-65
2022/05/13 11:28:14;;;;;;;;;;;23.50;55.20;;;;;;4998102;28;20012;-66
2022/05/13 11:30:45;;;;;;;;;;;23.50;55.10;;;;;;4984213;28;21766;-66
2022/05/13 11:33:23;;;;;;;;;;;23.50;55.10;;;;;;4993033;28;21483;-66
2022/05/13 11:36:02;;;;;;;;;;;23.50;55.20;;;;;;4994747;28;19924;-66
2022/05/13 11:38:45;;;;;;;;;;;23.50;55.10;;;;;;4980269;28;20312;-65
2022/05/13 11:41:13;;;;;;;;;;;23.50;55.20;;;;;;5005182;28;19914;-66
2022/05/13 11:43:55;;;;;;;;;;;23.60;55.20;;;;;;4994664;28;20021;-66
2022/05/13 11:46:25;;;;;;;;;;;23.60;55.20;;;;;;4975744;28;20408;-66
2022/05/13 11:48:51;;;;;;;;;;;23.50;55.10;;;;;;4993449;28;20000;-66
2022/05/13 11:51:20;;;;;;;;;;;23.50;55.10;;;;;;5005005;28;19957;-66
2022/05/13 11:53:45;;;;;;;;;;;23.50;55.00;;;;;;4995099;28;19926;-66
2022/05/13 11:56:26;;;;;;;;;;;23.50;55.10;;;;;;4990483;28;19923;-66
2022/05/13 11:58:55;;;;;;;;;;;23.50;55.40;;;;;;4993455;28;20020;-66
2022/05/13 12:01:38;;;;;;;;;;;23.50;55.50;;;;;;4996371;28;19972;-66
2022/05/13 12:04:13;;;;;;;;;;;23.50;55.10;;;;;;4995482;28;19925;-66
2022/05/13 12:06:50;;;;;;;;;;;23.50;55.10;;;;;;4990052;28;19918;-66
2022/05/13 12:09:23;;;;;;;;;;;23.50;55.30;;;;;;4978114;28;19956;-66
2022/05/13 12:12:01;;;;;;;;;;;23.60;55.30;;;;;;5005166;28;19948;-66
2022/05/13 12:14:36;;;;;;;;;;;23.60;55.20;;;;;;4985164;28;19914;-66
2022/05/13 12:17:20;;;;;;;;;;;23.50;55.30;;;;;;4983797;28;19945;-66
2022/05/13 12:19:51;;;;;;;;;;;23.50;55.20;;;;;;4988164;28;19953;-65
2022/05/13 12:22:30;;;;;;;;;;;23.60;55.20;;;;;;5004904;28;20297;-66
2022/05/13 12:24:59;;;;;;;;;;;23.50;55.20;;;;;;4989416;28;19917;-66
2022/05/13 12:27:29;;;;;;;;;;;23.60;55.10;;;;;;4983817;28;19924;-66
2022/05/13 12:29:56;;;;;;;;;;;23.50;54.90;;;;;;4996723;28;19968;-66
2022/05/13 12:32:22;;;;;;;;;;;23.50;55.10;;;;;;5003150;28;19921;-66
2022/05/13 12:37:47;;;;;;;;;;;23.50;55.00;;;;;;4983793;28;20025;-65
2022/05/13 12:40:16;;;;;;;;;;;23.60;54.70;;;;;;4973488;28;19925;-66
2022/05/13 12:42:50;;;;;;;;;;;23.50;55.00;;;;;;5008642;28;20004;-66
2022/05/13 12:45:21;;;;;;;;;;;23.50;54.80;;;;;;4983309;28;19917;-66
2022/05/13 12:47:55;;;;;;;;;;;23.50;54.90;;;;;;4987906;28;19924;-65
2022/05/13 12:50:21;;;;;;;;;;;23.60;54.90;;;;;;5000211;28;20008;-65
2022/05/13 12:52:46;;;;;;;;;;;23.50;55.10;;;;;;5006824;28;20040;-66
2022/05/13 12:55:17;;;;;;;;;;;23.50;55.00;;;;;;4995535;28;19925;-65
2022/05/13 12:57:44;;;;;;;;;;;23.50;55.10;;;;;;4989161;28;19914;-66
2022/05/13 13:00:14;;;;;;;;;;;23.60;55.30;;;;;;4999410;28;19913;-66
2022/05/13 13:02:39;;;;;;;;;;;23.50;55.20;;;;;;5006939;28;19928;-66
2022/05/13 13:05:06;;;;;;;;;;;23.60;55.00;;;;;;4997057;28;19926;-65
2022/05/13 13:07:33;;;;;;;;;;;23.50;54.70;;;;;;4987766;28;19926;-65
2022/05/13 13:09:59;;;;;;;;;;;23.50;54.80;;;;;;4995425;28;19913;-66
2022/05/13 13:12:40;;;;;;;;;;;23.50;54.60;;;;;;5008503;28;19929;-66
2022/05/13 13:15:08;;;;;;;;;;;23.50;54.50;;;;;;4998448;28;19944;-65
2022/05/13 13:17:41;;;;;;;;;;;23.50;54.30;;;;;;4987381;28;20439;-66
2022/05/13 13:20:07;;;;;;;;;;;23.50;54.30;;;;;;4994352;28;19923;-66
2022/05/13 13:22:43;;;;;;;;;;;23.60;54.20;;;;;;5006936;28;20372;-66
2022/05/13 13:25:22;;;;;;;;;;;23.50;54.20;;;;;;5000731;28;19980;-66
2022/05/13 13:27:47;;;;;;;;;;;23.50;54.30;;;;;;4986681;28;20445;-66
2022/05/13 13:30:14;;;;;;;;;;;23.50;54.40;;;;;;4995195;28;19924;-66
2022/05/13 13:32:43;;;;;;;;;;;23.50;54.30;;;;;;5006979;28;19921;-66
2022/05/13 13:35:09;;;;;;;;;;;23.50;54.40;;;;;;5001611;28;19921;-66
2022/05/13 13:37:35;;;;;;;;;;;23.50;54.20;;;;;;4988482;28;19968;-66
2022/05/13 13:40:22;;;;;;;;;;;23.50;54.10;;;;;;4990666;28;19917;-66
2022/05/13 13:42:47;;;;;;;;;;;23.50;54.20;;;;;;5007468;28;19960;-66
2022/05/13 13:45:18;;;;;;;;;;;23.50;54.00;;;;;;5002565;28;20558;-66
2022/05/13 13:47:44;;;;;;;;;;;23.50;54.20;;;;;;4986827;28;19925;-66
2022/05/13 13:50:20;;;;;;;;;;;23.50;54.20;;;;;;4990270;28;19921;-66
2022/05/13 13:52:47;;;;;;;;;;;23.50;54.20;;;;;;4994899;28;19963;-66
2022/05/13 13:55:18;;;;;;;;;;;23.50;54.10;;;;;;5004017;28;20436;-65
2022/05/13 13:58:02;;;;;;;;;;;23.50;53.60;;;;;;4986854;28;19921;-65
2022/05/13 14:00:33;;;;;;;;;;;23.50;53.60;;;;;;4992334;28;19922;-66
2022/05/13 14:03:12;;;;;;;;;;;23.50;53.80;;;;;;5005592;28;20643;-65
2022/05/13 14:05:41;;;;;;;;;;;23.50;53.60;;;;;;4999757;28;19933;-66
2022/05/13 14:08:07;;;;;;;;;;;23.50;53.70;;;;;;4986096;28;19921;-66
2022/05/13 14:10:51;;;;;;;;;;;23.50;53.60;;;;;;4973982;28;19914;-66
2022/05/13 14:13:17;;;;;;;;;;;23.50;53.80;;;;;;5006731;28;20339;-66
2022/05/13 14:15:44;;;;;;;;;;;23.50;53.80;;;;;;5001079;28;19914;-66
2022/05/13 14:18:10;;;;;;;;;;;23.50;53.50;;;;;;4987312;28;19914;-66
2022/05/13 14:20:36;;;;;;;;;;;23.50;53.30;;;;;;4989222;28;19952;-66
2022/05/13 14:23:08;;;;;;;;;;;23.50;53.40;;;;;;5007363;28;20282;-65
2022/05/13 14:25:33;;;;;;;;;;;23.50;52.20;;;;;;5004651;28;19918;-66
2022/05/13 14:27:59;;;;;;;;;;;23.50;52.70;;;;;;4987921;28;19914;-66
2022/05/13 14:30:24;;;;;;;;;;;23.50;52.00;;;;;;4986773;28;19994;-65
2022/05/13 14:32:55;;;;;;;;;;;23.50;52.10;;;;;;5005372;28;19928;-66
2022/05/13 14:35:26;;;;;;;;;;;23.50;51.80;;;;;;5005357;28;19960;-65
2022/05/13 14:37:56;;;;;;;;;;;23.50;51.60;;;;;;4966428;28;19914;-66
2022/05/13 14:40:22;;;;;;;;;;;23.50;51.60;;;;;;4981767;28;19914;-66
2022/05/13 14:42:49;;;;;;;;;;;23.50;50.90;;;;;;5004750;28;19925;-66
2022/05/13 14:45:15;;;;;;;;;;;23.50;50.90;;;;;;5004981;28;19925;-66
2022/05/13 14:47:40;;;;;;;;;;;23.50;50.90;;;;;;4989580;28;20014;-66
2022/05/13 14:50:09;;;;;;;;;;;23.50;50.80;;;;;;4986330;28;20385;-66
2022/05/13 14:52:55;;;;;;;;;;;23.50;50.90;;;;;;5002006;28;19945;-66
2022/05/13 14:55:20;;;;;;;;;;;23.50;51.10;;;;;;5006081;28;20004;-66
2022/05/13 14:57:46;;;;;;;;;;;23.50;51.20;;;;;;4988681;28;20108;-66